Time;durP1;ratioP1;P1;durP2;ratioP2;P2;SDS_P1;SDS_P2;PMS_P1;PMS_P2;Temp;Humidity;BMP_temperature;BMP_pressure;BME280_temperature;BME280_humidity;BME280_pressure;Samples;Min_cycle;Max_cycle;Signal;HPM_P1;HPM_P2
2021/04/25 00:01:25;;;;;;;3.00;1.70;;;6.70;43.50;;;;;;5100978;28;20505;-67
2021/04/25 00:03:52;;;;;;;4.00;2.10;;;6.70;43.60;;;;;;5104405;28;20705;-68
2021/04/25 00:06:19;;;;;;;2.57;1.80;;;6.70;43.80;;;;;;5108091;28;20198;-68
2021/04/25 00:08:47;;;;;;;5.17;1.90;;;6.70;43.90;;;;;;5107594;28;20191;-68
2021/04/25 00:11:13;;;;;;;2.40;1.53;;;6.70;44.10;;;;;;5101564;28;20869;-66
2021/04/25 00:13:43;;;;;;;6.30;2.50;;;6.60;44.10;;;;;;5103477;28;20248;-67
2021/04/25 00:16:09;;;;;;;4.13;1.90;;;6.60;44.50;;;;;;5105364;28;20203;-67
2021/04/25 00:18:36;;;;;;;4.23;2.27;;;6.60;44.70;;;;;;5108150;28;20195;-67
2021/04/25 00:21:03;;;;;;;3.13;1.90;;;6.50;44.80;;;;;;5107694;28;20331;-66
2021/04/25 00:23:30;;;;;;;5.90;2.10;;;6.40;44.90;;;;;;5113825;27;20202;-67
2021/04/25 00:25:59;;;;;;;3.00;1.90;;;6.40;45.10;;;;;;5110761;28;20303;-68
2021/04/25 00:28:28;;;;;;;3.07;1.97;;;6.40;45.30;;;;;;5110678;27;20244;-67
2021/04/25 00:30:57;;;;;;;4.17;2.07;;;6.30;45.40;;;;;;5104207;28;20240;-68
2021/04/25 00:33:24;;;;;;;3.37;1.87;;;6.40;45.60;;;;;;5109298;27;20207;-67
2021/04/25 00:35:51;;;;;;;5.20;2.33;;;6.30;45.70;;;;;;5118647;27;20290;-68
2021/04/25 00:38:18;;;;;;;5.13;2.70;;;6.30;45.90;;;;;;5102754;27;20211;-68
2021/04/25 00:40:45;;;;;;;4.07;2.53;;;6.30;46.20;;;;;;5109817;28;20199;-67
2021/04/25 00:43:12;;;;;;;5.63;2.40;;;6.30;46.30;;;;;;5109672;28;20250;-67
2021/04/25 00:45:39;;;;;;;5.33;2.60;;;6.20;46.50;;;;;;5108692;27;20203;-68
2021/04/25 00:48:06;;;;;;;4.03;2.07;;;6.20;46.70;;;;;;5114727;27;20199;-68
2021/04/25 00:50:33;;;;;;;3.87;2.17;;;6.20;46.80;;;;;;5112862;27;20195;-68
2021/04/25 00:53:00;;;;;;;3.27;2.00;;;6.20;46.90;;;;;;5116684;27;20707;-68
2021/04/25 00:55:29;;;;;;;4.23;2.30;;;6.10;47.00;;;;;;5111503;27;20199;-67
2021/04/25 00:57:57;;;;;;;2.33;1.70;;;6.10;47.20;;;;;;5114425;27;20207;-67
2021/04/25 01:00:26;;;;;;;3.67;2.07;;;6.10;47.20;;;;;;5112991;27;20195;-67
2021/04/25 01:02:53;;;;;;;3.47;1.90;;;6.00;47.60;;;;;;5116919;27;20176;-67
2021/04/25 01:05:21;;;;;;;3.17;2.20;;;6.00;47.80;;;;;;5113944;27;20195;-68
2021/04/25 01:07:48;;;;;;;3.17;1.67;;;6.00;47.90;;;;;;5121836;27;20195;-67
2021/04/25 01:10:16;;;;;;;3.13;1.73;;;5.90;47.90;;;;;;5106655;27;20192;-68
2021/04/25 01:12:44;;;;;;;4.53;2.10;;;5.90;48.10;;;;;;5109252;27;20413;-68
2021/04/25 01:15:13;;;;;;;4.37;2.33;;;5.90;48.20;;;;;;5109923;27;20476;-67
2021/04/25 01:17:43;;;;;;;4.87;1.80;;;5.90;48.40;;;;;;5123091;27;20195;-67
2021/04/25 01:20:15;;;;;;;3.10;1.90;;;5.90;48.50;;;;;;5118907;27;20196;-67
2021/04/25 01:22:43;;;;;;;4.03;2.00;;;5.80;48.70;;;;;;5116199;27;20608;-67
2021/04/25 01:25:12;;;;;;;2.80;1.40;;;5.80;48.90;;;;;;5113499;27;20210;-67
2021/04/25 01:27:39;;;;;;;3.07;1.80;;;5.80;49.00;;;;;;5109419;28;20213;-67
2021/04/25 01:30:09;;;;;;;2.60;1.60;;;5.80;49.10;;;;;;5110282;27;20616;-67
2021/04/25 01:32:36;;;;;;;2.33;1.43;;;5.70;49.30;;;;;;5109097;27;20191;-68
2021/04/25 01:35:03;;;;;;;2.43;1.60;;;5.70;49.40;;;;;;5106487;27;20221;-67
2021/04/25 01:37:30;;;;;;;2.43;1.30;;;5.70;49.50;;;;;;5113057;27;20199;-67
2021/04/25 01:39:58;;;;;;;4.83;1.50;;;5.80;49.70;;;;;;5111613;27;20192;-67
2021/04/25 01:42:24;;;;;;;2.07;1.37;;;5.70;50.00;;;;;;5110758;28;20216;-67
2021/04/25 01:44:51;;;;;;;1.30;1.20;;;5.60;50.00;;;;;;5111739;27;20494;-67
2021/04/25 01:47:18;;;;;;;2.23;1.00;;;5.60;50.10;;;;;;5107899;28;20214;-67
2021/04/25 01:49:45;;;;;;;1.77;1.17;;;5.60;50.30;;;;;;5108711;28;20245;-67
2021/04/25 01:52:11;;;;;;;2.27;1.30;;;5.70;50.50;;;;;;5110501;27;20282;-67
2021/04/25 01:54:38;;;;;;;1.40;1.23;;;5.60;50.60;;;;;;5110029;27;20204;-67
2021/04/25 01:57:06;;;;;;;3.57;1.17;;;5.60;50.90;;;;;;5125899;27;20206;-67
2021/04/25 01:59:33;;;;;;;3.30;1.57;;;5.60;51.10;;;;;;5124905;27;20218;-67
2021/04/25 02:02:00;;;;;;;2.93;1.40;;;5.60;51.30;;;;;;5115110;27;20215;-68
2021/04/25 02:04:27;;;;;;;2.37;1.33;;;5.60;51.40;;;;;;5110024;28;20536;-67
2021/04/25 02:06:53;;;;;;;2.80;1.60;;;5.50;51.50;;;;;;5109901;28;20203;-67
2021/04/25 02:09:20;;;;;;;1.60;1.20;;;5.50;51.60;;;;;;5110312;28;20196;-68
2021/04/25 02:11:47;;;;;;;1.60;1.30;;;5.50;51.90;;;;;;5111951;27;20274;-67
2021/04/25 02:14:14;;;;;;;2.90;1.20;;;5.50;52.10;;;;;;5108971;28;20192;-67
2021/04/25 02:16:41;;;;;;;1.60;1.30;;;5.50;52.30;;;;;;5108447;28;20622;-67
2021/04/25 02:19:08;;;;;;;3.10;1.40;;;5.40;52.40;;;;;;5109887;27;20659;-67
2021/04/25 02:21:34;;;;;;;1.60;1.10;;;5.50;52.60;;;;;;5110219;27;20212;-67
2021/04/25 02:24:01;;;;;;;1.90;1.00;;;5.40;52.60;;;;;;5109882;27;20191;-67
2021/04/25 02:26:28;;;;;;;1.30;1.20;;;5.40;52.90;;;;;;5109714;27;20246;-67
2021/04/25 02:28:54;;;;;;;1.60;1.17;;;5.40;52.90;;;;;;5110665;27;20206;-67
2021/04/25 02:31:22;;;;;;;2.10;1.13;;;5.40;53.10;;;;;;5110162;27;20655;-67
2021/04/25 02:33:49;;;;;;;1.87;1.10;;;5.30;53.00;;;;;;5114513;27;20326;-67
2021/04/25 02:36:15;;;;;;;2.03;1.20;;;5.30;53.20;;;;;;5111280;27;20236;-67
2021/04/25 02:38:42;;;;;;;3.00;1.20;;;5.30;53.30;;;;;;5111547;27;20203;-67
2021/04/25 02:41:09;;;;;;;2.20;1.20;;;5.40;53.60;;;;;;5112847;27;20331;-68
2021/04/25 02:43:36;;;;;;;1.80;1.17;;;5.30;53.60;;;;;;5107586;27;20595;-67
2021/04/25 02:46:02;;;;;;;3.17;0.97;;;5.30;53.70;;;;;;5108076;28;20192;-67
2021/04/25 02:48:30;;;;;;;2.40;1.20;;;5.30;53.90;;;;;;5107735;28;20192;-67
2021/04/25 02:50:56;;;;;;;1.33;1.17;;;5.30;54.10;;;;;;5107741;28;20203;-67
2021/04/25 02:53:23;;;;;;;0.83;0.83;;;5.30;54.30;;;;;;5109605;28;20196;-67
2021/04/25 02:55:50;;;;;;;1.17;1.07;;;5.20;54.40;;;;;;5106984;28;20215;-67
2021/04/25 02:58:17;;;;;;;2.27;1.47;;;6.00;55.10;;;;;;5107646;28;20576;-67
2021/04/25 03:00:44;;;;;;;1.83;1.00;;;5.20;54.70;;;;;;5106231;28;20222;-67
2021/04/25 03:03:11;;;;;;;1.90;1.00;;;5.20;54.80;;;;;;5102641;27;20207;-67
2021/04/25 03:05:38;;;;;;;2.13;0.87;;;5.20;54.90;;;;;;5108659;28;20191;-67
2021/04/25 03:08:05;;;;;;;3.53;0.97;;;5.20;55.10;;;;;;5108497;28;20252;-67
2021/04/25 03:10:32;;;;;;;2.60;0.97;;;5.20;55.40;;;;;;5106689;28;20297;-67
2021/04/25 03:12:59;;;;;;;1.13;1.03;;;5.20;55.60;;;;;;5107994;28;20196;-67
2021/04/25 03:15:25;;;;;;;3.10;0.93;;;5.20;55.70;;;;;;5106277;28;20207;-68
2021/04/25 03:17:52;;;;;;;1.60;0.90;;;5.20;55.90;;;;;;5108885;28;20200;-68
2021/04/25 03:20:23;;;;;;;1.50;0.97;;;5.20;56.10;;;;;;5109167;27;20261;-67
2021/04/25 03:22:51;;;;;;;1.60;1.00;;;5.20;56.30;;;;;;5106392;28;20233;-67
2021/04/25 03:25:18;;;;;;;2.77;1.27;;;5.10;56.40;;;;;;5107585;28;20628;-66
2021/04/25 03:27:45;;;;;;;3.27;1.30;;;5.10;56.70;;;;;;5108792;28;20211;-67
2021/04/25 03:30:13;;;;;;;3.20;1.00;;;5.10;57.00;;;;;;5107585;28;20915;-67
2021/04/25 03:32:41;;;;;;;1.00;1.00;;;5.10;57.20;;;;;;5106784;28;20199;-67
2021/04/25 03:35:10;;;;;;;2.93;1.20;;;5.10;57.30;;;;;;5112305;27;20192;-68
2021/04/25 03:37:37;;;;;;;3.17;1.17;;;5.10;57.60;;;;;;5101913;28;20203;-67
2021/04/25 03:40:09;;;;;;;1.80;1.00;;;5.10;57.80;;;;;;5107053;28;20210;-67
2021/04/25 03:42:36;;;;;;;2.03;1.43;;;5.10;58.00;;;;;;5096499;27;20212;-67
2021/04/25 03:45:04;;;;;;;1.40;0.97;;;5.00;58.20;;;;;;5107885;28;20192;-67
2021/04/25 03:47:31;;;;;;;2.00;1.30;;;5.00;58.50;;;;;;5097164;28;20232;-67
2021/04/25 03:49:57;;;;;;;1.80;1.20;;;5.00;58.80;;;;;;5109809;28;20556;-67
2021/04/25 03:52:24;;;;;;;2.50;1.23;;;5.00;59.10;;;;;;5108178;28;20204;-67
2021/04/25 03:54:51;;;;;;;2.13;1.03;;;5.10;59.40;;;;;;5110994;28;20203;-67
2021/04/25 03:57:18;;;;;;;2.27;1.33;;;5.10;59.60;;;;;;5110466;27;20626;-68
2021/04/25 03:59:45;;;;;;;6.47;2.07;;;5.10;59.80;;;;;;5111660;28;20223;-67
2021/04/25 04:02:11;;;;;;;4.30;1.97;;;5.10;60.00;;;;;;5111850;27;20211;-68
2021/04/25 04:04:38;;;;;;;5.03;1.97;;;5.10;60.30;;;;;;5111738;28;20566;-68
2021/04/25 04:07:05;;;;;;;3.10;1.60;;;5.10;60.60;;;;;;5111593;28;20188;-67
2021/04/25 04:09:31;;;;;;;3.03;2.20;;;5.20;61.00;;;;;;5112033;28;20203;-67
2021/04/25 04:11:58;;;;;;;4.77;2.30;;;5.20;61.60;;;;;;5114620;27;20194;-67
2021/04/25 04:14:26;;;;;;;2.87;1.53;;;5.20;62.00;;;;;;5113369;27;20244;-67
2021/04/25 04:16:53;;;;;;;2.13;1.53;;;5.20;62.40;;;;;;5100226;28;20188;-67
2021/04/25 04:19:19;;;;;;;3.10;1.30;;;5.20;62.70;;;;;;5112267;28;20200;-67
2021/04/25 04:21:46;;;;;;;3.03;1.37;;;5.20;63.00;;;;;;5111966;27;20704;-67
2021/04/25 04:24:13;;;;;;;1.80;1.20;;;5.20;63.20;;;;;;5111028;27;20203;-67
2021/04/25 04:26:39;;;;;;;1.40;1.20;;;5.30;63.70;;;;;;5107984;27;20242;-67
2021/04/25 04:29:06;;;;;;;1.60;1.13;;;5.30;64.00;;;;;;5106060;27;20188;-67
2021/04/25 04:31:34;;;;;;;1.47;1.10;;;5.30;64.20;;;;;;5112949;27;20808;-68
2021/04/25 04:34:00;;;;;;;2.33;1.33;;;5.40;64.60;;;;;;5116000;27;20795;-67
2021/04/25 04:36:29;;;;;;;0.87;0.70;;;5.40;65.00;;;;;;5112296;28;20234;-67
2021/04/25 04:38:56;;;;;;;1.50;1.20;;;5.40;65.40;;;;;;5110088;28;20559;-67
2021/04/25 04:41:23;;;;;;;1.03;0.93;;;5.50;65.60;;;;;;5110313;28;20224;-67
2021/04/25 04:43:50;;;;;;;1.77;1.13;;;5.50;65.80;;;;;;5110978;28;20195;-67
2021/04/25 04:46:16;;;;;;;1.80;1.10;;;5.60;66.10;;;;;;5110781;28;20195;-67
2021/04/25 04:48:44;;;;;;;2.07;1.10;;;5.60;66.30;;;;;;5112389;27;20432;-67
2021/04/25 04:51:11;;;;;;;2.23;1.37;;;5.70;66.40;;;;;;5117356;27;20187;-67
2021/04/25 04:53:38;;;;;;;3.43;1.10;;;5.70;66.70;;;;;;5114626;27;20267;-67
2021/04/25 04:56:05;;;;;;;1.43;1.20;;;5.80;66.90;;;;;;5117963;27;20190;-67
2021/04/25 04:58:32;;;;;;;2.70;1.30;;;5.80;67.00;;;;;;5113585;27;20215;-66
2021/04/25 05:00:58;;;;;;;1.83;1.13;;;5.90;67.40;;;;;;5112990;27;20763;-67
2021/04/25 05:03:25;;;;;;;3.03;1.60;;;5.90;68.10;;;;;;5111446;28;20249;-66
2021/04/25 05:05:53;;;;;;;1.73;1.40;;;6.00;67.60;;;;;;5109727;28;20198;-66
2021/04/25 05:08:20;;;;;;;2.00;1.30;;;6.10;67.80;;;;;;5116426;27;20647;-66
2021/04/25 05:10:46;;;;;;;1.33;1.13;;;6.20;67.70;;;;;;5116859;27;20675;-67
2021/04/25 05:13:13;;;;;;;1.70;0.97;;;6.20;67.70;;;;;;5102878;28;20225;-67
2021/04/25 05:15:41;;;;;;;2.20;1.10;;;6.40;67.60;;;;;;5108391;27;20301;-67
2021/04/25 05:18:08;;;;;;;2.67;1.10;;;6.40;67.50;;;;;;5111535;28;20192;-66
2021/04/25 05:20:35;;;;;;;3.13;1.23;;;6.50;67.50;;;;;;5111289;27;20200;-66
2021/04/25 05:23:03;;;;;;;1.23;0.90;;;6.60;67.70;;;;;;5110123;28;20273;-67
2021/04/25 05:25:30;;;;;;;1.63;0.90;;;6.80;67.30;;;;;;5110031;28;20231;-67
2021/04/25 05:28:00;;;;;;;1.17;1.00;;;7.00;66.60;;;;;;5110634;28;20226;-67
2021/04/25 05:30:30;;;;;;;1.07;0.73;;;7.10;65.70;;;;;;5109396;28;20568;-67
2021/04/25 05:32:57;;;;;;;1.00;0.83;;;7.30;65.10;;;;;;5110439;28;20184;-67
2021/04/25 05:35:24;;;;;;;0.83;0.83;;;7.40;64.40;;;;;;5113430;27;20570;-66
2021/04/25 05:37:50;;;;;;;2.23;1.03;;;7.70;64.10;;;;;;5108764;28;20306;-67
2021/04/25 05:40:18;;;;;;;1.10;0.87;;;7.90;63.40;;;;;;5110158;28;20191;-67
2021/04/25 05:42:45;;;;;;;1.37;0.70;;;8.40;62.40;;;;;;5113700;27;20346;-67
2021/04/25 05:45:20;;;;;;;1.07;0.97;;;8.90;60.70;;;;;;5111331;27;20610;-67
2021/04/25 05:47:48;;;;;;;0.40;0.40;;;9.40;59.00;;;;;;5107495;28;20203;-67
2021/04/25 05:50:15;;;;;;;1.90;0.90;;;10.10;56.60;;;;;;5111520;27;20201;-67
2021/04/25 05:52:42;;;;;;;0.60;0.60;;;10.70;55.00;;;;;;5113808;27;20568;-67
2021/04/25 05:55:09;;;;;;;0.77;0.70;;;11.40;53.60;;;;;;5113923;27;20202;-67
2021/04/25 05:57:37;;;;;;;0.80;0.80;;;12.30;52.30;;;;;;5113171;27;20196;-67
2021/04/25 06:00:07;;;;;;;0.60;0.60;;;13.50;50.50;;;;;;5107707;27;20207;-67
2021/04/25 06:02:34;;;;;;;1.50;0.90;;;14.80;48.50;;;;;;5121976;27;20220;-67
2021/04/25 06:05:00;;;;;;;0.70;0.70;;;16.20;46.40;;;;;;5111324;27;20204;-67
2021/04/25 06:07:27;;;;;;;0.60;0.60;;;17.50;44.50;;;;;;5109890;27;20192;-67
2021/04/25 06:09:54;;;;;;;1.70;0.90;;;18.50;42.90;;;;;;5104543;27;20257;-67
2021/04/25 06:12:20;;;;;;;0.70;0.70;;;19.40;41.30;;;;;;5115750;27;20187;-67
2021/04/25 06:14:48;;;;;;;1.20;0.93;;;20.00;39.60;;;;;;5109498;27;20207;-67
2021/04/25 06:17:15;;;;;;;1.10;1.00;;;20.60;39.00;;;;;;5115082;27;20331;-67
2021/04/25 06:19:42;;;;;;;0.77;0.77;;;21.30;38.60;;;;;;5107682;27;20195;-67
2021/04/25 06:22:10;;;;;;;0.83;0.83;;;21.90;37.90;;;;;;5117735;27;20208;-68
2021/04/25 06:24:36;;;;;;;1.20;0.80;;;22.60;37.30;;;;;;5114632;27;20898;-67
2021/04/25 06:27:04;;;;;;;1.00;0.90;;;23.30;36.60;;;;;;5120870;27;20246;-68
2021/04/25 06:29:30;;;;;;;1.00;0.90;;;24.00;35.60;;;;;;5117955;27;20738;-68
2021/04/25 06:31:58;;;;;;;1.10;1.00;;;24.60;34.90;;;;;;5128732;27;20192;-68
2021/04/25 06:34:25;;;;;;;1.10;0.95;;;25.00;33.60;;;;;;5113561;27;20198;-68
2021/04/25 06:36:51;;;;;;;0.70;0.70;;;25.20;33.40;;;;;;5109153;27;20784;-68
2021/04/25 06:39:21;;;;;;;1.10;0.80;;;25.50;33.00;;;;;;5118447;27;20546;-68
2021/04/25 06:41:48;;;;;;;0.90;0.90;;;25.60;32.70;;;;;;5121225;27;20298;-68
2021/04/25 06:44:14;;;;;;;0.93;0.93;;;25.40;30.60;;;;;;5120843;27;20660;-68
2021/04/25 06:46:41;;;;;;;0.65;0.65;;;25.20;29.40;;;;;;5108705;28;20222;-67
2021/04/25 06:49:09;;;;;;;2.95;1.00;;;25.10;29.20;;;;;;5109447;28;20327;-68
2021/04/25 06:51:35;;;;;;;0.80;0.80;;;25.30;28.80;;;;;;5109482;28;20191;-67
2021/04/25 06:54:03;;;;;;;0.98;0.90;;;25.30;28.50;;;;;;5109280;28;20204;-67
2021/04/25 06:56:29;;;;;;;3.22;1.25;;;25.60;28.40;;;;;;5112061;27;20593;-67
2021/04/25 06:58:56;;;;;;;7.32;1.83;;;25.60;27.90;;;;;;5116494;27;20192;-67
2021/04/25 07:01:23;;;;;;;4.28;2.20;;;25.30;27.60;;;;;;5108517;27;20663;-67
2021/04/25 07:03:50;;;;;;;2.05;1.85;;;25.10;28.00;;;;;;5115431;27;20252;-67
2021/04/25 07:06:17;;;;;;;2.20;2.00;;;24.70;28.10;;;;;;5108834;28;20195;-67
2021/04/25 07:08:45;;;;;;;2.58;1.90;;;24.60;28.10;;;;;;5106911;28;20191;-67
2021/04/25 07:11:12;;;;;;;1.50;1.40;;;24.50;28.00;;;;;;5117550;27;20275;-67
2021/04/25 07:13:39;;;;;;;1.50;1.40;;;24.50;28.30;;;;;;5116543;27;20575;-67
2021/04/25 07:16:06;;;;;;;3.58;2.00;;;24.60;28.10;;;;;;5121223;27;20203;-67
2021/04/25 07:18:32;;;;;;;3.17;1.80;;;24.90;28.10;;;;;;5124712;27;20195;-67
2021/04/25 07:20:59;;;;;;;1.60;1.40;;;25.00;27.70;;;;;;5114848;27;20203;-66
2021/04/25 07:23:30;;;;;;;1.73;1.33;;;25.10;27.80;;;;;;5108124;28;20210;-67
2021/04/25 07:25:58;;;;;;;1.40;1.30;;;25.30;27.70;;;;;;5107146;28;20247;-66
2021/04/25 07:28:25;;;;;;;1.23;1.10;;;25.00;27.70;;;;;;5110686;27;20203;-67
2021/04/25 07:30:52;;;;;;;2.85;1.30;;;24.80;27.70;;;;;;5110567;28;20203;-67
2021/04/25 07:33:20;;;;;;;1.48;0.95;;;24.90;27.60;;;;;;5112006;28;20222;-67
2021/04/25 07:35:46;;;;;;;1.23;1.13;;;25.80;27.30;;;;;;5110607;27;20192;-67
2021/04/25 07:38:13;;;;;;;1.92;1.50;;;25.80;26.80;;;;;;5113583;28;20203;-68
2021/04/25 07:40:41;;;;;;;3.08;1.88;;;24.60;27.00;;;;;;5128271;27;20205;-67
2021/04/25 07:43:08;;;;;;;2.40;1.85;;;23.30;27.30;;;;;;5102352;28;20222;-67
2021/04/25 07:45:35;;;;;;;3.22;1.10;;;21.90;27.60;;;;;;5115302;28;20199;-67
2021/04/25 07:48:02;;;;;;;1.00;1.00;;;20.60;28.30;;;;;;5115485;28;20206;-67
2021/04/25 07:50:28;;;;;;;2.93;1.27;;;19.40;29.00;;;;;;5106898;28;20194;-67
2021/04/25 07:52:55;;;;;;;1.47;1.20;;;18.30;30.00;;;;;;5108334;28;20196;-67
2021/04/25 07:55:22;;;;;;;4.20;1.87;;;17.50;30.80;;;;;;5107799;28;20655;-67
2021/04/25 07:57:50;;;;;;;2.87;1.73;;;16.90;31.30;;;;;;5108751;28;20675;-67
2021/04/25 08:00:17;;;;;;;2.60;1.43;;;16.30;31.80;;;;;;5105501;28;20199;-66
2021/04/25 08:02:44;;;;;;;2.70;1.37;;;15.60;32.70;;;;;;5107731;28;20213;-68
2021/04/25 08:05:12;;;;;;;2.73;1.20;;;15.10;33.70;;;;;;5108156;28;20199;-67
2021/04/25 08:07:39;;;;;;;1.10;1.00;;;14.60;34.80;;;;;;5106275;28;20218;-67
2021/04/25 08:10:07;;;;;;;2.83;1.50;;;14.20;35.00;;;;;;5105158;28;20221;-68
2021/04/25 08:12:33;;;;;;;3.07;1.27;;;13.90;34.90;;;;;;5108326;28;20196;-66
2021/04/25 08:15:01;;;;;;;1.57;1.10;;;13.50;34.80;;;;;;5106886;28;20203;-67
2021/04/25 08:17:28;;;;;;;1.47;1.00;;;13.30;35.30;;;;;;5105730;28;20188;-68
2021/04/25 08:19:54;;;;;;;1.20;0.90;;;13.00;36.00;;;;;;5097214;28;20189;-66
2021/04/25 08:22:24;;;;;;;2.63;0.90;;;12.80;36.50;;;;;;5109547;28;20213;-66
2021/04/25 08:24:50;;;;;;;0.90;0.90;;;12.70;36.90;;;;;;5126106;27;20212;-67
2021/04/25 08:27:17;;;;;;;1.20;1.00;;;12.60;37.20;;;;;;5126398;27;20242;-67
2021/04/25 08:29:44;;;;;;;1.27;1.00;;;13.10;37.60;;;;;;5114707;28;20282;-67
2021/04/25 08:32:11;;;;;;;5.63;1.13;;;14.90;37.30;;;;;;5106991;28;20288;-67
2021/04/25 08:34:38;;;;;;;2.67;1.00;;;16.30;36.00;;;;;;5107254;28;20214;-67
2021/04/25 08:37:05;;;;;;;1.90;0.90;;;18.80;35.00;;;;;;5110306;28;20246;-67
2021/04/25 08:39:32;;;;;;;0.80;0.80;;;20.70;33.10;;;;;;5108032;28;20218;-68
2021/04/25 08:41:58;;;;;;;0.67;0.67;;;22.80;31.20;;;;;;5110907;28;20220;-67
2021/04/25 08:44:26;;;;;;;1.50;0.87;;;23.80;29.50;;;;;;5110186;27;20198;-67
2021/04/25 08:46:54;;;;;;;0.73;0.73;;;23.80;29.10;;;;;;5114918;27;20205;-67
2021/04/25 08:49:25;;;;;;;3.05;0.70;;;24.40;28.40;;;;;;5114761;27;20575;-67
2021/04/25 08:51:53;;;;;;;2.13;0.60;;;22.80;27.30;;;;;;5115951;27;20237;-67
2021/04/25 08:54:24;;;;;;;2.93;0.83;;;20.80;27.80;;;;;;5113636;27;20485;-67
2021/04/25 08:56:51;;;;;;;5.70;2.33;;;19.00;28.60;;;;;;5115701;27;20283;-67
2021/04/25 08:59:17;;;;;;;11.97;1.50;;;17.50;30.00;;;;;;5108410;28;20237;-69
2021/04/25 09:01:45;;;;;;;2.83;0.80;;;16.00;33.40;;;;;;5107245;27;20204;-67
2021/04/25 09:04:12;;;;;;;0.97;0.73;;;14.50;36.60;;;;;;5107949;28;20204;-68
2021/04/25 09:07:01;;;;;;;0.47;0.47;;;13.40;37.90;;;;;;5107893;27;20292;-68
2021/04/25 09:09:48;;;;;;;0.50;0.50;;;12.60;39.30;;;;;;5107153;27;20228;-68
2021/04/25 09:12:30;;;;;;;0.70;0.70;;;12.00;40.30;;;;;;5106612;27;20292;-68
2021/04/25 09:14:57;;;;;;;0.50;0.47;;;11.60;41.30;;;;;;5106648;27;20727;-68
2021/04/25 09:17:24;;;;;;;1.10;0.60;;;11.30;42.30;;;;;;5107552;27;20206;-68
2021/04/25 09:19:54;;;;;;;0.60;0.50;;;10.80;45.10;;;;;;5109326;27;20203;-67
2021/04/25 09:22:41;;;;;;;2.50;1.20;;;10.30;46.40;;;;;;5109320;27;20243;-67
2021/04/25 09:25:11;;;;;;;0.83;0.83;;;9.90;48.00;;;;;;5111544;27;20205;-69
2021/04/25 09:27:40;;;;;;;1.30;0.70;;;9.60;49.20;;;;;;5109353;27;20309;-67
2021/04/25 09:30:08;;;;;;;0.60;0.60;;;9.30;50.00;;;;;;5109570;27;20219;-68
2021/04/25 09:32:35;;;;;;;2.57;0.73;;;9.10;50.50;;;;;;5106307;28;20298;-68
2021/04/25 09:35:11;;;;;;;1.73;0.60;;;8.90;51.40;;;;;;5113599;27;20586;-67
2021/04/25 09:37:41;;;;;;;0.50;0.50;;;8.60;52.40;;;;;;5101300;28;20760;-66
2021/04/25 09:40:11;;;;;;;0.60;0.60;;;8.40;53.40;;;;;;5106521;28;20399;-67
2021/04/25 09:42:56;;;;;;;2.07;0.70;;;8.20;53.90;;;;;;5103517;27;20717;-67
2021/04/25 09:45:26;;;;;;;1.50;1.00;;;8.30;55.70;;;;;;5104396;28;20208;-67
2021/04/25 09:47:54;;;;;;;1.90;0.50;;;8.50;57.20;;;;;;5105682;28;20664;-68
2021/04/25 09:50:22;;;;;;;0.60;0.60;;;8.40;58.30;;;;;;5105162;28;20201;-68
2021/04/25 09:52:51;;;;;;;0.30;0.30;;;8.40;60.10;;;;;;5107034;28;20259;-68
2021/04/25 09:55:21;;;;;;;0.40;0.40;;;8.70;62.20;;;;;;5104854;28;20692;-69
2021/04/25 09:57:50;;;;;;;0.40;0.40;;;9.60;62.10;;;;;;5106044;28;20325;-68
2021/04/25 10:00:17;;;;;;;0.50;0.50;;;10.40;57.90;;;;;;5106188;27;20278;-68
2021/04/25 10:02:58;;;;;;;0.50;0.50;;;11.90;55.70;;;;;;5113703;27;20603;-67
2021/04/25 10:05:26;;;;;;;0.63;0.40;;;14.50;51.70;;;;;;5113631;27;20592;-69
2021/04/25 10:07:55;;;;;;;0.50;0.50;;;16.80;47.70;;;;;;5124064;27;20555;-69
2021/04/25 10:10:26;;;;;;;0.87;0.50;;;18.70;44.60;;;;;;5107905;27;20200;-69
2021/04/25 10:12:56;;;;;;;0.60;0.60;;;20.40;42.00;;;;;;5122966;27;20196;-69
2021/04/25 10:15:24;;;;;;;0.40;0.40;;;22.30;39.40;;;;;;5120081;27;20211;-69
2021/04/25 10:17:55;;;;;;;1.67;1.00;;;23.80;37.90;;;;;;5124872;27;20214;-69
2021/04/25 10:20:25;;;;;;;0.65;0.65;;;25.20;35.20;;;;;;5102979;27;20201;-71
2021/04/25 10:22:55;;;;;;;0.75;0.60;;;25.60;34.40;;;;;;5118321;27;20245;-69
2021/04/25 10:25:33;;;;;;;0.52;0.52;;;24.50;33.10;;;;;;5121699;27;20324;-69
2021/04/25 10:28:02;;;;;;;0.88;0.80;;;22.90;33.20;;;;;;5120763;27;20197;-69
2021/04/25 10:30:31;;;;;;;0.77;0.77;;;21.00;34.00;;;;;;5122487;27;20227;-69
2021/04/25 10:32:58;;;;;;;0.73;0.73;;;19.40;35.40;;;;;;5122780;27;20200;-68
2021/04/25 10:35:28;;;;;;;0.60;0.60;;;18.10;36.60;;;;;;5122722;27;20430;-68
2021/04/25 10:38:00;;;;;;;0.50;0.50;;;17.30;37.40;;;;;;5123670;27;20286;-68
2021/04/25 10:40:31;;;;;;;1.27;0.40;;;16.50;38.10;;;;;;5125045;27;20207;-68
2021/04/25 10:43:03;;;;;;;0.63;0.50;;;15.80;38.80;;;;;;5125767;27;20215;-68
2021/04/25 10:45:33;;;;;;;0.57;0.50;;;15.10;39.20;;;;;;5127289;27;20773;-68
2021/04/25 10:48:34;;;;;;;0.40;0.40;;;14.60;39.80;;;;;;5123126;27;20579;-68
2021/04/25 10:51:08;;;;;;;0.30;0.30;;;14.10;40.40;;;;;;5125010;27;20198;-69
2021/04/25 10:53:37;;;;;;;0.47;0.47;;;13.60;40.90;;;;;;5117541;27;20673;-68
2021/04/25 10:56:32;;;;;;;1.37;0.80;;;13.20;41.50;;;;;;5108581;28;20201;-69
2021/04/25 10:59:31;;;;;;;57.23;8.97;;;12.70;42.20;;;;;;5100837;27;20203;-69
2021/04/25 11:02:00;;;;;;;117.57;16.20;;;12.30;42.70;;;;;;5107128;27;20211;-69
2021/04/25 11:05:06;;;;;;;67.17;8.60;;;12.10;43.10;;;;;;5108733;27;20215;-69
2021/04/25 11:07:51;;;;;;;7.97;1.93;;;12.00;43.40;;;;;;5107819;28;20211;-69
2021/04/25 11:10:25;;;;;;;0.73;0.73;;;11.90;43.80;;;;;;5104288;28;20449;-69
2021/04/25 11:12:52;;;;;;;0.70;0.57;;;11.80;44.00;;;;;;5109615;27;20199;-69
2021/04/25 11:15:48;;;;;;;1.00;0.80;;;11.80;44.50;;;;;;5107878;27;20683;-69
2021/04/25 11:18:40;;;;;;;2.33;1.13;;;11.70;45.20;;;;;;5108404;28;20551;-69
2021/04/25 11:21:46;;;;;;;1.10;1.00;;;11.70;45.80;;;;;;5108355;28;20726;-69
2021/04/25 11:24:35;;;;;;;2.00;1.30;;;12.30;46.20;;;;;;5101433;28;20226;-69
2021/04/25 11:27:06;;;;;;;2.07;1.87;;;14.10;46.10;;;;;;5107654;27;20571;-69
2021/04/25 11:29:55;;;;;;;1.50;1.40;;;16.20;44.60;;;;;;5107739;28;20188;-69
2021/04/25 11:32:31;;;;;;;1.97;1.63;;;17.70;42.70;;;;;;5107383;28;20252;-69
2021/04/25 11:34:59;;;;;;;2.73;1.80;;;17.90;41.90;;;;;;5107160;28;20206;-69
2021/04/25 11:37:26;;;;;;;1.73;1.63;;;17.40;41.70;;;;;;5104138;28;20252;-69
2021/04/25 11:39:54;;;;;;;1.53;1.43;;;16.90;41.80;;;;;;5106666;28;20217;-69
2021/04/25 11:42:27;;;;;;;2.20;1.33;;;16.50;42.20;;;;;;5107309;28;20583;-70
2021/04/25 11:44:55;;;;;;;1.50;1.40;;;16.00;42.50;;;;;;5107594;28;20259;-69
2021/04/25 11:47:22;;;;;;;1.30;1.20;;;15.60;42.80;;;;;;5108403;28;20836;-69
2021/04/25 11:49:52;;;;;;;1.10;1.00;;;15.20;43.00;;;;;;5111564;28;20283;-69
2021/04/25 11:52:20;;;;;;;1.20;1.10;;;14.80;43.30;;;;;;5111105;28;20203;-69
2021/04/25 11:54:49;;;;;;;1.37;1.13;;;14.60;43.60;;;;;;5107136;28;20673;-69
2021/04/25 11:57:17;;;;;;;1.67;1.20;;;14.50;43.80;;;;;;5106372;28;20211;-69
2021/04/25 11:59:55;;;;;;;1.07;0.90;;;14.30;44.10;;;;;;5110550;27;20208;-69
2021/04/25 12:02:22;;;;;;;1.33;0.97;;;14.10;44.50;;;;;;5105172;28;20689;-69
2021/04/25 12:04:51;;;;;;;1.67;1.17;;;13.90;44.80;;;;;;5108596;28;20269;-69
2021/04/25 12:07:37;;;;;;;0.87;0.60;;;13.70;45.00;;;;;;5108195;28;20246;-69
2021/04/25 12:10:20;;;;;;;0.80;0.80;;;13.60;45.20;;;;;;5102110;28;20236;-68
2021/04/25 12:13:09;;;;;;;2.17;0.87;;;13.50;45.30;;;;;;5108707;28;20191;-68
2021/04/25 12:15:46;;;;;;;0.60;0.60;;;13.50;45.60;;;;;;5105473;28;20215;-68
2021/04/25 12:18:14;;;;;;;0.47;0.47;;;13.20;46.10;;;;;;5108507;27;20276;-69
2021/04/25 12:20:45;;;;;;;1.47;0.70;;;12.90;46.60;;;;;;5104822;27;20293;-69
2021/04/25 12:23:13;;;;;;;2.10;0.60;;;12.50;47.20;;;;;;5110352;27;20225;-68
2021/04/25 12:25:40;;;;;;;1.03;0.67;;;12.30;47.70;;;;;;5111579;28;20239;-69
2021/04/25 12:28:07;;;;;;;0.50;0.50;;;12.10;48.00;;;;;;5112189;27;20247;-68
2021/04/25 12:30:34;;;;;;;0.50;0.50;;;12.00;48.40;;;;;;5106894;28;20206;-69
2021/04/25 12:33:07;;;;;;;0.60;0.60;;;11.90;48.80;;;;;;5111669;27;20198;-68
2021/04/25 12:35:35;;;;;;;0.60;0.60;;;11.80;49.50;;;;;;5109645;28;20236;-68
2021/04/25 12:38:22;;;;;;;0.70;0.70;;;11.60;49.80;;;;;;5109844;28;20696;-69
2021/04/25 12:41:00;;;;;;;0.50;0.50;;;11.40;50.40;;;;;;5111301;28;20210;-68
2021/04/25 12:43:28;;;;;;;0.40;0.40;;;11.20;50.70;;;;;;5113319;27;20618;-69
2021/04/25 12:45:55;;;;;;;1.70;0.70;;;11.00;51.30;;;;;;5114604;27;20203;-68
2021/04/25 12:48:35;;;;;;;0.50;0.50;;;10.90;52.00;;;;;;5106422;27;20199;-69
2021/04/25 12:51:17;;;;;;;1.10;0.67;;;10.70;52.60;;;;;;5104279;28;20547;-68
2021/04/25 12:53:46;;;;;;;0.50;0.50;;;10.50;53.10;;;;;;5121509;27;20199;-68
2021/04/25 12:56:25;;;;;;;0.47;0.40;;;10.30;53.40;;;;;;5105126;27;20200;-68
2021/04/25 12:59:14;;;;;;;0.50;0.50;;;10.10;54.10;;;;;;5105734;27;20198;-68
2021/04/25 13:01:43;;;;;;;0.30;0.30;;;10.00;54.70;;;;;;5015068;28;20232;-68
2021/04/25 13:04:28;;;;;;;1.80;0.50;;;9.20;55.20;;;;;;5022528;28;20605;-68